sensor_id;sensor_type;location;lat;lon;timestamp;P1;durP1;ratioP1;P2;durP2;ratioP2
43994;SDS011;51687;52.160;5.298;2022-07-23T00:00:18;1.40;;;0.90;;
43994;SDS011;51687;52.160;5.298;2022-07-23T00:02:46;1.30;;;1.03;;
43994;SDS011;51687;52.160;5.298;2022-07-23T00:05:13;1.23;;;1.00;;
43994;SDS011;51687;52.160;5.298;2022-07-23T00:07:39;2.90;;;1.02;;
43994;SDS011;51687;52.160;5.298;2022-07-23T00:10:06;2.15;;;1.00;;
43994;SDS011;51687;52.160;5.298;2022-07-23T00:12:34;2.03;;;1.00;;
43994;SDS011;51687;52.160;5.298;2022-07-23T00:15:03;1.38;;;1.10;;
43994;SDS011;51687;52.160;5.298;2022-07-23T00:17:31;2.33;;;1.30;;
43994;SDS011;51687;52.160;5.298;2022-07-23T00:19:58;2.25;;;1.00;;
43994;SDS011;51687;52.160;5.298;2022-07-23T00:22:24;1.00;;;0.90;;
43994;SDS011;51687;52.160;5.298;2022-07-23T00:24:52;1.27;;;1.10;;
43994;SDS011;51687;52.160;5.298;2022-07-23T00:27:38;1.65;;;1.15;;
43994;SDS011;51687;52.160;5.298;2022-07-23T00:30:05;1.08;;;0.85;;
43994;SDS011;51687;52.160;5.298;2022-07-23T00:32:44;2.15;;;1.20;;
43994;SDS011;51687;52.160;5.298;2022-07-23T00:35:21;2.60;;;1.10;;
43994;SDS011;51687;52.160;5.298;2022-07-23T00:37:49;1.90;;;1.30;;
43994;SDS011;51687;52.160;5.298;2022-07-23T00:40:16;1.67;;;0.80;;
43994;SDS011;51687;52.160;5.298;2022-07-23T00:42:43;1.55;;;1.10;;
43994;SDS011;51687;52.160;5.298;2022-07-23T00:45:10;2.42;;;1.23;;
43994;SDS011;51687;52.160;5.298;2022-07-23T00:47:38;2.00;;;1.20;;
43994;SDS011;51687;52.160;5.298;2022-07-23T00:50:05;2.10;;;1.00;;
43994;SDS011;51687;52.160;5.298;2022-07-23T00:52:34;1.90;;;1.20;;
43994;SDS011;51687;52.160;5.298;2022-07-23T00:57:32;2.03;;;1.42;;
43994;SDS011;51687;52.160;5.298;2022-07-23T00:59:59;1.80;;;1.00;;
43994;SDS011;51687;52.160;5.298;2022-07-23T01:02:26;1.20;;;1.10;;
43994;SDS011;51687;52.160;5.298;2022-07-23T01:04:53;1.98;;;1.38;;
43994;SDS011;51687;52.160;5.298;2022-07-23T01:07:20;2.28;;;1.05;;
43994;SDS011;51687;52.160;5.298;2022-07-23T01:09:48;1.30;;;1.10;;
43994;SDS011;51687;52.160;5.298;2022-07-23T01:12:16;1.45;;;1.10;;
43994;SDS011;51687;52.160;5.298;2022-07-23T01:14:43;2.33;;;1.33;;
43994;SDS011;51687;52.160;5.298;2022-07-23T01:17:10;2.30;;;1.10;;
43994;SDS011;51687;52.160;5.298;2022-07-23T01:19:37;1.35;;;1.10;;
43994;SDS011;51687;52.160;5.298;2022-07-23T01:22:04;1.88;;;1.10;;
43994;SDS011;51687;52.160;5.298;2022-07-23T01:24:31;1.67;;;1.40;;
43994;SDS011;51687;52.160;5.298;2022-07-23T01:26:58;1.55;;;1.20;;
43994;SDS011;51687;52.160;5.298;2022-07-23T01:29:25;1.75;;;1.20;;
43994;SDS011;51687;52.160;5.298;2022-07-23T01:31:52;2.95;;;1.25;;
43994;SDS011;51687;52.160;5.298;2022-07-23T01:34:18;1.88;;;1.25;;
43994;SDS011;51687;52.160;5.298;2022-07-23T01:36:45;1.33;;;1.13;;
43994;SDS011;51687;52.160;5.298;2022-07-23T01:39:13;1.20;;;1.00;;
43994;SDS011;51687;52.160;5.298;2022-07-23T01:41:41;1.40;;;1.05;;
43994;SDS011;51687;52.160;5.298;2022-07-23T01:44:10;1.95;;;1.30;;
43994;SDS011;51687;52.160;5.298;2022-07-23T01:46:38;1.00;;;1.00;;
43994;SDS011;51687;52.160;5.298;2022-07-23T01:49:05;1.20;;;1.08;;
43994;SDS011;51687;52.160;5.298;2022-07-23T01:51:32;1.80;;;1.30;;
43994;SDS011;51687;52.160;5.298;2022-07-23T01:53:59;1.48;;;1.20;;
43994;SDS011;51687;52.160;5.298;2022-07-23T01:56:25;2.08;;;0.98;;
43994;SDS011;51687;52.160;5.298;2022-07-23T01:58:52;1.42;;;1.27;;
43994;SDS011;51687;52.160;5.298;2022-07-23T02:01:19;2.58;;;1.30;;
43994;SDS011;51687;52.160;5.298;2022-07-23T02:03:46;1.40;;;1.30;;
43994;SDS011;51687;52.160;5.298;2022-07-23T02:06:13;2.03;;;1.27;;
43994;SDS011;51687;52.160;5.298;2022-07-23T02:08:39;2.65;;;1.45;;
43994;SDS011;51687;52.160;5.298;2022-07-23T02:11:06;1.73;;;1.55;;
43994;SDS011;51687;52.160;5.298;2022-07-23T02:13:33;2.08;;;1.40;;
43994;SDS011;51687;52.160;5.298;2022-07-23T02:16:00;2.85;;;1.70;;
43994;SDS011;51687;52.160;5.298;2022-07-23T02:18:27;1.95;;;1.75;;
43994;SDS011;51687;52.160;5.298;2022-07-23T02:20:54;2.15;;;1.77;;
43994;SDS011;51687;52.160;5.298;2022-07-23T02:23:21;2.00;;;1.80;;
43994;SDS011;51687;52.160;5.298;2022-07-23T02:25:48;1.80;;;1.70;;
43994;SDS011;51687;52.160;5.298;2022-07-23T02:28:14;2.42;;;1.85;;
43994;SDS011;51687;52.160;5.298;2022-07-23T02:30:41;2.08;;;1.83;;
43994;SDS011;51687;52.160;5.298;2022-07-23T02:33:08;1.80;;;1.63;;
43994;SDS011;51687;52.160;5.298;2022-07-23T02:35:35;3.50;;;1.88;;
43994;SDS011;51687;52.160;5.298;2022-07-23T02:38:02;2.00;;;1.80;;
43994;SDS011;51687;52.160;5.298;2022-07-23T02:40:28;1.90;;;1.67;;
43994;SDS011;51687;52.160;5.298;2022-07-23T02:42:55;2.92;;;1.67;;
43994;SDS011;51687;52.160;5.298;2022-07-23T02:45:22;3.25;;;1.60;;
43994;SDS011;51687;52.160;5.298;2022-07-23T02:47:49;2.00;;;1.40;;
43994;SDS011;51687;52.160;5.298;2022-07-23T02:50:16;1.95;;;1.40;;
43994;SDS011;51687;52.160;5.298;2022-07-23T02:52:43;2.45;;;1.35;;
43994;SDS011;51687;52.160;5.298;2022-07-23T02:55:10;8.70;;;1.90;;
43994;SDS011;51687;52.160;5.298;2022-07-23T02:57:37;2.13;;;1.40;;
43994;SDS011;51687;52.160;5.298;2022-07-23T03:00:04;1.85;;;1.52;;
43994;SDS011;51687;52.160;5.298;2022-07-23T03:04:59;4.32;;;1.55;;
43994;SDS011;51687;52.160;5.298;2022-07-23T03:07:26;1.60;;;1.40;;
43994;SDS011;51687;52.160;5.298;2022-07-23T03:09:52;1.50;;;1.40;;
43994;SDS011;51687;52.160;5.298;2022-07-23T03:12:19;1.65;;;1.48;;
43994;SDS011;51687;52.160;5.298;2022-07-23T03:14:46;1.50;;;1.40;;
43994;SDS011;51687;52.160;5.298;2022-07-23T03:17:13;1.55;;;1.33;;
43994;SDS011;51687;52.160;5.298;2022-07-23T03:19:39;1.85;;;1.42;;
43994;SDS011;51687;52.160;5.298;2022-07-23T03:22:06;2.22;;;1.20;;
43994;SDS011;51687;52.160;5.298;2022-07-23T03:24:33;1.73;;;1.27;;
43994;SDS011;51687;52.160;5.298;2022-07-23T03:27:19;2.92;;;1.40;;
43994;SDS011;51687;52.160;5.298;2022-07-23T03:29:46;1.40;;;1.30;;
43994;SDS011;51687;52.160;5.298;2022-07-23T03:32:13;3.95;;;1.63;;
43994;SDS011;51687;52.160;5.298;2022-07-23T03:34:40;2.95;;;1.60;;
43994;SDS011;51687;52.160;5.298;2022-07-23T03:37:08;2.60;;;1.13;;
43994;SDS011;51687;52.160;5.298;2022-07-23T03:39:34;1.52;;;1.35;;
43994;SDS011;51687;52.160;5.298;2022-07-23T03:42:01;3.70;;;1.60;;
43994;SDS011;51687;52.160;5.298;2022-07-23T03:44:32;1.70;;;1.30;;
43994;SDS011;51687;52.160;5.298;2022-07-23T03:46:59;1.83;;;1.73;;
43994;SDS011;51687;52.160;5.298;2022-07-23T03:49:28;1.60;;;1.30;;
43994;SDS011;51687;52.160;5.298;2022-07-23T03:51:55;2.17;;;1.60;;
43994;SDS011;51687;52.160;5.298;2022-07-23T03:54:21;2.53;;;1.38;;
43994;SDS011;51687;52.160;5.298;2022-07-23T03:56:48;2.55;;;1.58;;
43994;SDS011;51687;52.160;5.298;2022-07-23T03:59:15;1.77;;;1.40;;
43994;SDS011;51687;52.160;5.298;2022-07-23T04:01:49;2.20;;;1.58;;
43994;SDS011;51687;52.160;5.298;2022-07-23T04:04:16;3.20;;;1.55;;
43994;SDS011;51687;52.160;5.298;2022-07-23T04:06:42;2.92;;;1.70;;
43994;SDS011;51687;52.160;5.298;2022-07-23T04:09:09;1.33;;;1.23;;
43994;SDS011;51687;52.160;5.298;2022-07-23T04:11:36;3.22;;;1.40;;
43994;SDS011;51687;52.160;5.298;2022-07-23T04:14:03;1.65;;;1.38;;
43994;SDS011;51687;52.160;5.298;2022-07-23T04:16:30;2.42;;;1.60;;
43994;SDS011;51687;52.160;5.298;2022-07-23T04:18:59;1.77;;;1.40;;
43994;SDS011;51687;52.160;5.298;2022-07-23T04:21:27;1.60;;;1.50;;
43994;SDS011;51687;52.160;5.298;2022-07-23T04:23:53;1.63;;;1.30;;
43994;SDS011;51687;52.160;5.298;2022-07-23T04:26:20;1.33;;;1.20;;
43994;SDS011;51687;52.160;5.298;2022-07-23T04:28:47;1.52;;;1.42;;
43994;SDS011;51687;52.160;5.298;2022-07-23T04:31:14;1.30;;;1.20;;
43994;SDS011;51687;52.160;5.298;2022-07-23T04:33:41;1.73;;;1.40;;
43994;SDS011;51687;52.160;5.298;2022-07-23T04:36:07;2.35;;;1.20;;
43994;SDS011;51687;52.160;5.298;2022-07-23T04:38:34;3.20;;;1.50;;
43994;SDS011;51687;52.160;5.298;2022-07-23T04:41:01;2.10;;;1.20;;
43994;SDS011;51687;52.160;5.298;2022-07-23T04:43:28;2.15;;;1.95;;
43994;SDS011;51687;52.160;5.298;2022-07-23T04:45:55;2.22;;;1.25;;
43994;SDS011;51687;52.160;5.298;2022-07-23T04:48:22;2.15;;;1.60;;
43994;SDS011;51687;52.160;5.298;2022-07-23T04:50:48;1.88;;;1.77;;
43994;SDS011;51687;52.160;5.298;2022-07-23T04:53:15;1.83;;;1.58;;
43994;SDS011;51687;52.160;5.298;2022-07-23T04:55:42;1.50;;;1.40;;
43994;SDS011;51687;52.160;5.298;2022-07-23T04:58:08;1.50;;;1.30;;
43994;SDS011;51687;52.160;5.298;2022-07-23T05:00:35;1.40;;;1.30;;
43994;SDS011;51687;52.160;5.298;2022-07-23T05:03:02;1.77;;;1.65;;
43994;SDS011;51687;52.160;5.298;2022-07-23T05:05:29;2.42;;;1.50;;
43994;SDS011;51687;52.160;5.298;2022-07-23T05:07:56;2.38;;;1.55;;
43994;SDS011;51687;52.160;5.298;2022-07-23T05:10:23;1.40;;;1.30;;
43994;SDS011;51687;52.160;5.298;2022-07-23T05:12:52;1.38;;;1.02;;
43994;SDS011;51687;52.160;5.298;2022-07-23T05:15:19;1.48;;;1.20;;
43994;SDS011;51687;52.160;5.298;2022-07-23T05:17:45;2.05;;;1.42;;
43994;SDS011;51687;52.160;5.298;2022-07-23T05:20:13;2.50;;;1.20;;
43994;SDS011;51687;52.160;5.298;2022-07-23T05:22:40;2.05;;;1.50;;
43994;SDS011;51687;52.160;5.298;2022-07-23T05:25:07;2.25;;;1.80;;
43994;SDS011;51687;52.160;5.298;2022-07-23T05:27:34;2.78;;;1.30;;
43994;SDS011;51687;52.160;5.298;2022-07-23T05:30:01;1.85;;;1.20;;
43994;SDS011;51687;52.160;5.298;2022-07-23T05:32:30;2.10;;;1.40;;
43994;SDS011;51687;52.160;5.298;2022-07-23T05:34:58;1.27;;;1.17;;
43994;SDS011;51687;52.160;5.298;2022-07-23T05:37:25;1.55;;;1.45;;
43994;SDS011;51687;52.160;5.298;2022-07-23T05:39:52;1.60;;;1.50;;
43994;SDS011;51687;52.160;5.298;2022-07-23T05:42:18;1.83;;;1.48;;
43994;SDS011;51687;52.160;5.298;2022-07-23T05:44:45;1.60;;;1.50;;
43994;SDS011;51687;52.160;5.298;2022-07-23T05:47:12;3.60;;;1.95;;
43994;SDS011;51687;52.160;5.298;2022-07-23T05:49:39;2.65;;;1.95;;
43994;SDS011;51687;52.160;5.298;2022-07-23T05:52:06;2.28;;;1.75;;
43994;SDS011;51687;52.160;5.298;2022-07-23T05:54:36;2.55;;;2.10;;
43994;SDS011;51687;52.160;5.298;2022-07-23T05:57:03;2.25;;;2.05;;
43994;SDS011;51687;52.160;5.298;2022-07-23T05:59:30;4.10;;;2.13;;
43994;SDS011;51687;52.160;5.298;2022-07-23T06:01:57;2.20;;;2.00;;
43994;SDS011;51687;52.160;5.298;2022-07-23T06:04:24;3.17;;;1.85;;
43994;SDS011;51687;52.160;5.298;2022-07-23T06:06:51;2.90;;;1.70;;
43994;SDS011;51687;52.160;5.298;2022-07-23T06:09:17;2.45;;;2.20;;
43994;SDS011;51687;52.160;5.298;2022-07-23T06:11:44;3.72;;;2.20;;
43994;SDS011;51687;52.160;5.298;2022-07-23T06:14:12;1.70;;;1.45;;
43994;SDS011;51687;52.160;5.298;2022-07-23T06:16:38;2.97;;;1.80;;
43994;SDS011;51687;52.160;5.298;2022-07-23T06:19:05;5.38;;;1.70;;
43994;SDS011;51687;52.160;5.298;2022-07-23T06:21:32;4.85;;;1.70;;
43994;SDS011;51687;52.160;5.298;2022-07-23T06:24:12;2.67;;;1.65;;
43994;SDS011;51687;52.160;5.298;2022-07-23T06:26:39;2.03;;;1.58;;
43994;SDS011;51687;52.160;5.298;2022-07-23T06:29:06;2.08;;;1.60;;
43994;SDS011;51687;52.160;5.298;2022-07-23T06:31:33;3.17;;;1.35;;
43994;SDS011;51687;52.160;5.298;2022-07-23T06:34:00;6.32;;;1.83;;
43994;SDS011;51687;52.160;5.298;2022-07-23T06:36:27;2.58;;;1.45;;
43994;SDS011;51687;52.160;5.298;2022-07-23T06:38:54;3.08;;;1.20;;
43994;SDS011;51687;52.160;5.298;2022-07-23T06:41:20;1.42;;;1.10;;
43994;SDS011;51687;52.160;5.298;2022-07-23T06:43:48;3.30;;;1.23;;
43994;SDS011;51687;52.160;5.298;2022-07-23T06:46:15;1.67;;;1.23;;
43994;SDS011;51687;52.160;5.298;2022-07-23T06:48:42;3.22;;;1.20;;
43994;SDS011;51687;52.160;5.298;2022-07-23T06:51:09;5.75;;;1.45;;
43994;SDS011;51687;52.160;5.298;2022-07-23T06:53:36;2.20;;;1.30;;
43994;SDS011;51687;52.160;5.298;2022-07-23T06:56:02;2.40;;;1.15;;
43994;SDS011;51687;52.160;5.298;2022-07-23T06:58:29;3.63;;;1.00;;
43994;SDS011;51687;52.160;5.298;2022-07-23T07:00:56;4.60;;;1.17;;
43994;SDS011;51687;52.160;5.298;2022-07-23T07:03:23;2.17;;;0.90;;
43994;SDS011;51687;52.160;5.298;2022-07-23T07:05:49;2.83;;;1.05;;
43994;SDS011;51687;52.160;5.298;2022-07-23T07:08:16;2.20;;;0.90;;
43994;SDS011;51687;52.160;5.298;2022-07-23T07:10:43;1.60;;;1.05;;
43994;SDS011;51687;52.160;5.298;2022-07-23T07:13:10;3.20;;;1.00;;
43994;SDS011;51687;52.160;5.298;2022-07-23T07:15:37;1.90;;;0.90;;
43994;SDS011;51687;52.160;5.298;2022-07-23T07:18:03;2.03;;;0.80;;
43994;SDS011;51687;52.160;5.298;2022-07-23T07:20:30;2.80;;;1.05;;
43994;SDS011;51687;52.160;5.298;2022-07-23T07:22:57;1.80;;;0.70;;
43994;SDS011;51687;52.160;5.298;2022-07-23T07:25:24;2.55;;;0.73;;
43994;SDS011;51687;52.160;5.298;2022-07-23T07:27:50;1.05;;;0.70;;
43994;SDS011;51687;52.160;5.298;2022-07-23T07:30:17;2.70;;;0.70;;
43994;SDS011;51687;52.160;5.298;2022-07-23T07:32:44;1.83;;;0.80;;
43994;SDS011;51687;52.160;5.298;2022-07-23T07:35:26;3.75;;;0.88;;
43994;SDS011;51687;52.160;5.298;2022-07-23T07:37:53;2.35;;;0.70;;
43994;SDS011;51687;52.160;5.298;2022-07-23T07:40:20;1.83;;;0.68;;
43994;SDS011;51687;52.160;5.298;2022-07-23T07:42:48;2.10;;;0.63;;
43994;SDS011;51687;52.160;5.298;2022-07-23T07:47:43;3.22;;;1.10;;
43994;SDS011;51687;52.160;5.298;2022-07-23T07:50:09;1.40;;;0.60;;
43994;SDS011;51687;52.160;5.298;2022-07-23T07:52:38;1.17;;;0.60;;
43994;SDS011;51687;52.160;5.298;2022-07-23T07:55:05;2.40;;;1.07;;
43994;SDS011;51687;52.160;5.298;2022-07-23T07:57:33;3.50;;;0.57;;
43994;SDS011;51687;52.160;5.298;2022-07-23T08:00:02;1.73;;;0.90;;
43994;SDS011;51687;52.160;5.298;2022-07-23T08:02:45;0.98;;;0.60;;
43994;SDS011;51687;52.160;5.298;2022-07-23T08:05:21;1.38;;;0.80;;
43994;SDS011;51687;52.160;5.298;2022-07-23T08:07:57;3.50;;;0.90;;
43994;SDS011;51687;52.160;5.298;2022-07-23T08:10:25;2.65;;;1.00;;
43994;SDS011;51687;52.160;5.298;2022-07-23T08:12:54;2.47;;;0.73;;
43994;SDS011;51687;52.160;5.298;2022-07-23T08:15:25;1.35;;;0.52;;
43994;SDS011;51687;52.160;5.298;2022-07-23T08:17:54;1.63;;;0.60;;
43994;SDS011;51687;52.160;5.298;2022-07-23T08:20:22;2.30;;;0.80;;
43994;SDS011;51687;52.160;5.298;2022-07-23T08:22:50;2.65;;;0.80;;
43994;SDS011;51687;52.160;5.298;2022-07-23T08:25:27;4.65;;;0.68;;
43994;SDS011;51687;52.160;5.298;2022-07-23T08:27:54;1.95;;;1.10;;
43994;SDS011;51687;52.160;5.298;2022-07-23T08:30:21;1.95;;;0.80;;
43994;SDS011;51687;52.160;5.298;2022-07-23T08:32:55;1.73;;;0.70;;
43994;SDS011;51687;52.160;5.298;2022-07-23T08:35:30;1.77;;;0.60;;
43994;SDS011;51687;52.160;5.298;2022-07-23T08:38:00;1.63;;;0.77;;
43994;SDS011;51687;52.160;5.298;2022-07-23T08:40:29;1.45;;;0.80;;
43994;SDS011;51687;52.160;5.298;2022-07-23T08:42:57;1.80;;;0.80;;
43994;SDS011;51687;52.160;5.298;2022-07-23T08:45:24;2.75;;;0.80;;
43994;SDS011;51687;52.160;5.298;2022-07-23T08:47:55;4.97;;;1.00;;
43994;SDS011;51687;52.160;5.298;2022-07-23T08:52:57;2.00;;;0.93;;
43994;SDS011;51687;52.160;5.298;2022-07-23T08:55:26;0.75;;;0.63;;
43994;SDS011;51687;52.160;5.298;2022-07-23T08:57:53;1.40;;;0.50;;
43994;SDS011;51687;52.160;5.298;2022-07-23T09:00:20;3.00;;;1.50;;
43994;SDS011;51687;52.160;5.298;2022-07-23T09:05:16;1.88;;;0.90;;
43994;SDS011;51687;52.160;5.298;2022-07-23T09:10:29;2.85;;;0.70;;
43994;SDS011;51687;52.160;5.298;2022-07-23T09:13:22;1.02;;;0.60;;
43994;SDS011;51687;52.160;5.298;2022-07-23T09:16:12;2.70;;;1.13;;
43994;SDS011;51687;52.160;5.298;2022-07-23T09:18:46;2.35;;;0.75;;
43994;SDS011;51687;52.160;5.298;2022-07-23T09:26:26;2.78;;;1.00;;
43994;SDS011;51687;52.160;5.298;2022-07-23T09:29:17;0.77;;;0.60;;
43994;SDS011;51687;52.160;5.298;2022-07-23T09:34:17;1.85;;;0.60;;
43994;SDS011;51687;52.160;5.298;2022-07-23T09:36:52;2.20;;;0.82;;
43994;SDS011;51687;52.160;5.298;2022-07-23T09:39:25;4.00;;;0.80;;
43994;SDS011;51687;52.160;5.298;2022-07-23T09:41:56;0.90;;;0.50;;
43994;SDS011;51687;52.160;5.298;2022-07-23T09:44:24;1.40;;;0.90;;
43994;SDS011;51687;52.160;5.298;2022-07-23T09:46:58;3.22;;;1.08;;
43994;SDS011;51687;52.160;5.298;2022-07-23T09:49:26;2.63;;;0.95;;
43994;SDS011;51687;52.160;5.298;2022-07-23T09:51:57;0.85;;;0.60;;
43994;SDS011;51687;52.160;5.298;2022-07-23T09:54:28;2.38;;;0.75;;
43994;SDS011;51687;52.160;5.298;2022-07-23T09:59:32;1.77;;;0.85;;
43994;SDS011;51687;52.160;5.298;2022-07-23T10:02:02;1.67;;;0.95;;
43994;SDS011;51687;52.160;5.298;2022-07-23T10:04:31;2.08;;;1.10;;
43994;SDS011;51687;52.160;5.298;2022-07-23T10:06:59;2.00;;;0.88;;
43994;SDS011;51687;52.160;5.298;2022-07-23T10:09:29;2.30;;;1.13;;
43994;SDS011;51687;52.160;5.298;2022-07-23T10:12:02;3.42;;;1.00;;
43994;SDS011;51687;52.160;5.298;2022-07-23T10:14:51;2.88;;;1.30;;
43994;SDS011;51687;52.160;5.298;2022-07-23T10:17:18;3.55;;;1.05;;
43994;SDS011;51687;52.160;5.298;2022-07-23T10:19:45;0.80;;;0.77;;
43994;SDS011;51687;52.160;5.298;2022-07-23T10:30:48;5.88;;;0.77;;
43994;SDS011;51687;52.160;5.298;2022-07-23T10:33:30;2.38;;;1.00;;
43994;SDS011;51687;52.160;5.298;2022-07-23T10:38:47;2.08;;;0.85;;
43994;SDS011;51687;52.160;5.298;2022-07-23T10:47:04;1.27;;;0.68;;
43994;SDS011;51687;52.160;5.298;2022-07-23T10:49:50;3.00;;;0.88;;
43994;SDS011;51687;52.160;5.298;2022-07-23T10:52:18;1.33;;;0.80;;
43994;SDS011;51687;52.160;5.298;2022-07-23T10:54:51;0.95;;;0.70;;
43994;SDS011;51687;52.160;5.298;2022-07-23T10:57:24;2.47;;;0.88;;
43994;SDS011;51687;52.160;5.298;2022-07-23T11:02:42;3.97;;;1.02;;
43994;SDS011;51687;52.160;5.298;2022-07-23T11:05:21;2.00;;;0.77;;
43994;SDS011;51687;52.160;5.298;2022-07-23T11:10:37;2.67;;;0.80;;
43994;SDS011;51687;52.160;5.298;2022-07-23T11:31:58;2.08;;;0.80;;
43994;SDS011;51687;52.160;5.298;2022-07-23T11:37:00;0.80;;;0.60;;
43994;SDS011;51687;52.160;5.298;2022-07-23T11:39:29;2.30;;;0.90;;
43994;SDS011;51687;52.160;5.298;2022-07-23T11:41:57;2.97;;;0.90;;
43994;SDS011;51687;52.160;5.298;2022-07-23T11:44:25;2.50;;;1.10;;
43994;SDS011;51687;52.160;5.298;2022-07-23T11:46:59;1.73;;;0.88;;
43994;SDS011;51687;52.160;5.298;2022-07-23T11:49:27;2.20;;;1.27;;
43994;SDS011;51687;52.160;5.298;2022-07-23T11:52:05;2.40;;;0.80;;
43994;SDS011;51687;52.160;5.298;2022-07-23T11:54:49;2.03;;;0.90;;
43994;SDS011;51687;52.160;5.298;2022-07-23T11:57:18;1.73;;;0.88;;
43994;SDS011;51687;52.160;5.298;2022-07-23T11:59:47;2.10;;;1.20;;
43994;SDS011;51687;52.160;5.298;2022-07-23T12:02:20;2.05;;;0.90;;
43994;SDS011;51687;52.160;5.298;2022-07-23T12:04:48;2.42;;;0.90;;
43994;SDS011;51687;52.160;5.298;2022-07-23T12:10:13;2.22;;;1.13;;
43994;SDS011;51687;52.160;5.298;2022-07-23T12:12:43;2.55;;;1.10;;
43994;SDS011;51687;52.160;5.298;2022-07-23T12:15:19;1.63;;;0.80;;
43994;SDS011;51687;52.160;5.298;2022-07-23T12:17:53;3.13;;;0.70;;
43994;SDS011;51687;52.160;5.298;2022-07-23T12:20:22;1.50;;;0.90;;
43994;SDS011;51687;52.160;5.298;2022-07-23T12:23:11;4.15;;;0.98;;
43994;SDS011;51687;52.160;5.298;2022-07-23T12:25:46;2.97;;;0.88;;
43994;SDS011;51687;52.160;5.298;2022-07-23T12:28:18;1.75;;;0.63;;
43994;SDS011;51687;52.160;5.298;2022-07-23T12:30:57;2.60;;;0.90;;
43994;SDS011;51687;52.160;5.298;2022-07-23T12:33:29;3.33;;;1.17;;
43994;SDS011;51687;52.160;5.298;2022-07-23T12:36:04;2.47;;;1.00;;
43994;SDS011;51687;52.160;5.298;2022-07-23T12:38:39;3.25;;;0.90;;
43994;SDS011;51687;52.160;5.298;2022-07-23T12:41:12;2.47;;;0.80;;
43994;SDS011;51687;52.160;5.298;2022-07-23T12:43:40;2.25;;;1.00;;
43994;SDS011;51687;52.160;5.298;2022-07-23T12:46:11;1.33;;;0.80;;
43994;SDS011;51687;52.160;5.298;2022-07-23T12:51:29;3.03;;;0.80;;
43994;SDS011;51687;52.160;5.298;2022-07-23T12:53:59;5.03;;;1.00;;
43994;SDS011;51687;52.160;5.298;2022-07-23T12:56:33;1.95;;;0.80;;
43994;SDS011;51687;52.160;5.298;2022-07-23T12:59:06;1.23;;;0.75;;
43994;SDS011;51687;52.160;5.298;2022-07-23T13:01:38;2.08;;;0.80;;
43994;SDS011;51687;52.160;5.298;2022-07-23T13:04:13;2.50;;;0.98;;
43994;SDS011;51687;52.160;5.298;2022-07-23T13:09:22;1.30;;;1.00;;
43994;SDS011;51687;52.160;5.298;2022-07-23T13:11:52;2.78;;;1.45;;
43994;SDS011;51687;52.160;5.298;2022-07-23T13:14:22;1.23;;;0.88;;
43994;SDS011;51687;52.160;5.298;2022-07-23T13:16:52;1.20;;;0.98;;
43994;SDS011;51687;52.160;5.298;2022-07-23T13:19:22;1.63;;;1.10;;
43994;SDS011;51687;52.160;5.298;2022-07-23T13:21:52;0.98;;;0.93;;
43994;SDS011;51687;52.160;5.298;2022-07-23T13:24:20;0.80;;;0.63;;
43994;SDS011;51687;52.160;5.298;2022-07-23T13:26:47;1.80;;;0.90;;
43994;SDS011;51687;52.160;5.298;2022-07-23T13:29:16;1.60;;;0.82;;
43994;SDS011;51687;52.160;5.298;2022-07-23T13:31:45;2.95;;;1.27;;
43994;SDS011;51687;52.160;5.298;2022-07-23T13:34:14;2.50;;;1.17;;
43994;SDS011;51687;52.160;5.298;2022-07-23T13:36:41;1.67;;;0.80;;
43994;SDS011;51687;52.160;5.298;2022-07-23T13:39:10;2.13;;;1.30;;
43994;SDS011;51687;52.160;5.298;2022-07-23T13:41:37;2.92;;;1.30;;
43994;SDS011;51687;52.160;5.298;2022-07-23T13:44:04;1.33;;;1.00;;
43994;SDS011;51687;52.160;5.298;2022-07-23T13:46:32;1.38;;;0.93;;
43994;SDS011;51687;52.160;5.298;2022-07-23T13:49:00;1.85;;;1.30;;
43994;SDS011;51687;52.160;5.298;2022-07-23T13:51:28;1.55;;;1.20;;
43994;SDS011;51687;52.160;5.298;2022-07-23T13:53:55;2.92;;;1.20;;
43994;SDS011;51687;52.160;5.298;2022-07-23T13:56:25;2.15;;;1.00;;
43994;SDS011;51687;52.160;5.298;2022-07-23T13:58:52;2.63;;;1.15;;
43994;SDS011;51687;52.160;5.298;2022-07-23T14:01:19;1.17;;;0.90;;
43994;SDS011;51687;52.160;5.298;2022-07-23T14:03:46;2.08;;;0.98;;
43994;SDS011;51687;52.160;5.298;2022-07-23T14:06:13;2.40;;;1.38;;
43994;SDS011;51687;52.160;5.298;2022-07-23T14:08:59;1.92;;;1.33;;
43994;SDS011;51687;52.160;5.298;2022-07-23T14:11:27;1.42;;;0.95;;
43994;SDS011;51687;52.160;5.298;2022-07-23T14:13:54;2.08;;;1.60;;
43994;SDS011;51687;52.160;5.298;2022-07-23T14:16:21;1.92;;;0.88;;
43994;SDS011;51687;52.160;5.298;2022-07-23T14:18:49;10.48;;;1.73;;
43994;SDS011;51687;52.160;5.298;2022-07-23T14:21:15;1.80;;;1.10;;
43994;SDS011;51687;52.160;5.298;2022-07-23T14:23:42;3.20;;;1.35;;
43994;SDS011;51687;52.160;5.298;2022-07-23T14:26:09;2.17;;;1.00;;
43994;SDS011;51687;52.160;5.298;2022-07-23T14:28:36;2.28;;;1.42;;
43994;SDS011;51687;52.160;5.298;2022-07-23T14:31:05;1.63;;;0.93;;
43994;SDS011;51687;52.160;5.298;2022-07-23T14:33:46;2.10;;;1.90;;
43994;SDS011;51687;52.160;5.298;2022-07-23T14:36:13;3.38;;;1.67;;
43994;SDS011;51687;52.160;5.298;2022-07-23T14:38:41;2.00;;;1.38;;
43994;SDS011;51687;52.160;5.298;2022-07-23T14:41:08;3.50;;;1.40;;
43994;SDS011;51687;52.160;5.298;2022-07-23T14:43:36;2.38;;;1.20;;
43994;SDS011;51687;52.160;5.298;2022-07-23T14:46:04;2.15;;;1.40;;
43994;SDS011;51687;52.160;5.298;2022-07-23T14:48:31;2.05;;;1.45;;
43994;SDS011;51687;52.160;5.298;2022-07-23T14:50:58;1.55;;;1.27;;
43994;SDS011;51687;52.160;5.298;2022-07-23T14:53:25;1.50;;;1.40;;
43994;SDS011;51687;52.160;5.298;2022-07-23T14:55:52;3.00;;;1.40;;
43994;SDS011;51687;52.160;5.298;2022-07-23T14:58:20;2.47;;;1.35;;
43994;SDS011;51687;52.160;5.298;2022-07-23T15:00:47;2.05;;;0.95;;
43994;SDS011;51687;52.160;5.298;2022-07-23T15:03:14;1.73;;;1.17;;
43994;SDS011;51687;52.160;5.298;2022-07-23T15:05:42;1.60;;;0.90;;
43994;SDS011;51687;52.160;5.298;2022-07-23T15:08:09;2.13;;;1.48;;
43994;SDS011;51687;52.160;5.298;2022-07-23T15:10:35;3.92;;;1.35;;
43994;SDS011;51687;52.160;5.298;2022-07-23T15:13:03;4.25;;;1.30;;
43994;SDS011;51687;52.160;5.298;2022-07-23T15:15:29;2.72;;;2.08;;
43994;SDS011;51687;52.160;5.298;2022-07-23T15:17:56;2.15;;;1.30;;
43994;SDS011;51687;52.160;5.298;2022-07-23T15:20:23;2.95;;;1.67;;
43994;SDS011;51687;52.160;5.298;2022-07-23T15:23:03;2.75;;;1.70;;
43994;SDS011;51687;52.160;5.298;2022-07-23T15:25:33;3.80;;;1.60;;
43994;SDS011;51687;52.160;5.298;2022-07-23T15:28:00;1.30;;;1.20;;
43994;SDS011;51687;52.160;5.298;2022-07-23T15:30:27;2.50;;;1.42;;
43994;SDS011;51687;52.160;5.298;2022-07-23T15:32:54;2.60;;;1.50;;
43994;SDS011;51687;52.160;5.298;2022-07-23T15:35:21;2.83;;;1.40;;
43994;SDS011;51687;52.160;5.298;2022-07-23T15:37:49;3.55;;;1.50;;
43994;SDS011;51687;52.160;5.298;2022-07-23T15:40:16;1.55;;;1.30;;
43994;SDS011;51687;52.160;5.298;2022-07-23T15:42:44;1.42;;;1.30;;
43994;SDS011;51687;52.160;5.298;2022-07-23T15:45:11;1.30;;;1.13;;
43994;SDS011;51687;52.160;5.298;2022-07-23T15:47:40;2.80;;;2.40;;
43994;SDS011;51687;52.160;5.298;2022-07-23T15:50:09;3.45;;;1.30;;
43994;SDS011;51687;52.160;5.298;2022-07-23T15:52:36;2.10;;;1.53;;
43994;SDS011;51687;52.160;5.298;2022-07-23T15:55:04;1.85;;;1.45;;
43994;SDS011;51687;52.160;5.298;2022-07-23T15:57:41;2.03;;;1.40;;
43994;SDS011;51687;52.160;5.298;2022-07-23T16:00:08;2.20;;;1.20;;
43994;SDS011;51687;52.160;5.298;2022-07-23T16:02:35;1.42;;;1.25;;
43994;SDS011;51687;52.160;5.298;2022-07-23T16:05:02;3.40;;;2.17;;
43994;SDS011;51687;52.160;5.298;2022-07-23T16:07:29;2.92;;;2.53;;
43994;SDS011;51687;52.160;5.298;2022-07-23T16:09:57;2.70;;;2.00;;
43994;SDS011;51687;52.160;5.298;2022-07-23T16:12:24;2.20;;;1.67;;
43994;SDS011;51687;52.160;5.298;2022-07-23T16:14:51;1.65;;;1.33;;